createdAt,value
2022-12-01T00:00:47.125Z,63.72
2022-12-01T00:03:17.453Z,63.42
2022-12-01T00:05:47.744Z,63.51
2022-12-01T00:08:19.814Z,63.37
2022-12-01T00:10:49.892Z,63.60
2022-12-01T00:13:20.116Z,63.63
2022-12-01T00:15:50.279Z,63.24
2022-12-01T00:18:20.381Z,63.44
2022-12-01T00:20:56.191Z,63.10
2022-12-01T00:23:26.340Z,63.68
2022-12-01T00:26:03.024Z,63.48
2022-12-01T00:28:33.414Z,63.59
2022-12-01T00:31:07.943Z,63.21
2022-12-01T00:33:39.198Z,63.20
2022-12-01T00:36:09.645Z,63.13
2022-12-01T00:38:39.991Z,62.94
2022-12-01T00:41:10.313Z,63.23
2022-12-01T00:43:40.676Z,63.05
2022-12-01T00:46:10.862Z,62.69
2022-12-01T00:48:41.023Z,62.86
2022-12-01T00:51:11.063Z,62.81
2022-12-01T00:53:41.185Z,63.11
2022-12-01T00:56:11.203Z,62.67
2022-12-01T00:58:41.309Z,63.05
2022-12-01T01:01:11.536Z,62.95
2022-12-01T01:03:41.849Z,63.03
2022-12-01T01:06:13.211Z,63.16
2022-12-01T01:08:43.275Z,62.80
2022-12-01T01:11:13.404Z,62.72
2022-12-01T01:13:43.480Z,62.73
2022-12-01T01:16:19.961Z,62.55
2022-12-01T01:18:50.159Z,63.08
2022-12-01T01:21:22.271Z,63.20
2022-12-01T01:23:53.688Z,62.99
2022-12-01T01:26:30.442Z,63.08
2022-12-01T01:29:03.651Z,62.91
2022-12-01T01:31:34.670Z,62.53
2022-12-01T01:34:05.082Z,62.50
2022-12-01T01:36:35.234Z,62.75
2022-12-01T01:39:06.601Z,62.33
2022-12-01T01:41:36.764Z,62.28
2022-12-01T01:44:44.051Z,62.05
2022-12-01T01:47:15.584Z,62.35
2022-12-01T01:49:45.981Z,62.26
2022-12-01T01:52:17.726Z,62.66
2022-12-01T01:54:51.398Z,62.20
2022-12-01T01:57:26.850Z,62.88
2022-12-01T02:00:08.027Z,62.65
2022-12-01T02:02:40.957Z,62.70
2022-12-01T02:05:32.860Z,62.16
2022-12-01T02:08:04.401Z,62.62
2022-12-01T02:11:03.777Z,62.61
2022-12-01T02:14:06.450Z,62.52
2022-12-01T02:17:01.953Z,61.75
2022-12-01T02:20:09.531Z,61.52
2022-12-01T02:22:40.090Z,62.03
2022-12-01T02:25:47.077Z,61.33
2022-12-01T02:28:45.139Z,60.98
2022-12-01T02:31:22.790Z,62.08
2022-12-01T02:34:12.573Z,61.41
2022-12-01T02:37:10.297Z,61.00
2022-12-01T02:39:52.449Z,61.59
2022-12-01T02:42:53.832Z,61.52
2022-12-01T02:45:49.240Z,61.68
2022-12-01T02:48:28.615Z,61.64
2022-12-01T02:51:02.902Z,61.65
2022-12-01T02:53:34.165Z,62.23
2022-12-01T02:56:10.035Z,62.22
2022-12-01T02:58:40.205Z,61.93
2022-12-01T03:01:34.127Z,61.95
2022-12-01T03:04:32.175Z,61.66
2022-12-01T03:07:27.306Z,62.07
2022-12-01T03:10:06.516Z,61.93
2022-12-01T03:13:00.761Z,61.45
2022-12-01T03:15:44.494Z,61.86
2022-12-01T03:18:37.973Z,61.42
2022-12-01T03:21:31.989Z,61.68
2022-12-01T03:24:09.202Z,61.93
2022-12-01T03:26:42.329Z,61.70
2022-12-01T03:29:20.744Z,61.34
2022-12-01T03:31:55.326Z,61.47
2022-12-01T03:34:35.565Z,60.76
2022-12-01T03:37:13.893Z,60.70
2022-12-01T03:39:48.361Z,61.28
2022-12-01T03:42:37.017Z,61.07
2022-12-01T03:45:13.411Z,61.10
2022-12-01T03:47:43.921Z,61.37
2022-12-01T03:50:16.525Z,60.98
2022-12-01T03:53:00.199Z,60.98
2022-12-01T03:55:35.951Z,61.03
2022-12-01T03:58:17.354Z,61.23
2022-12-01T04:00:50.198Z,61.73
2022-12-01T04:03:24.285Z,61.49
2022-12-01T04:05:54.863Z,61.43
2022-12-01T04:08:25.344Z,61.89
2022-12-01T04:10:55.502Z,61.37
2022-12-01T04:13:26.738Z,61.78
2022-12-01T04:15:56.926Z,61.81
2022-12-01T04:18:27.107Z,61.32
2022-12-01T04:20:57.177Z,61.35
2022-12-01T04:23:45.775Z,61.83
2022-12-01T04:26:16.134Z,61.57
2022-12-01T04:28:46.303Z,61.59
2022-12-01T04:31:16.453Z,61.67
2022-12-01T04:33:46.628Z,61.64
2022-12-01T04:36:16.839Z,61.95
2022-12-01T04:38:46.942Z,61.87
2022-12-01T04:41:17.308Z,61.90
2022-12-01T04:43:47.537Z,61.79
2022-12-01T04:46:17.806Z,61.83
2022-12-01T04:48:48.115Z,61.86
2022-12-01T04:51:18.265Z,61.90
2022-12-01T04:53:49.858Z,61.92
2022-12-01T04:56:20.159Z,61.98
2022-12-01T04:58:50.748Z,62.18
2022-12-01T05:01:20.982Z,61.56
2022-12-01T05:03:51.345Z,62.16
2022-12-01T05:06:25.346Z,61.56
2022-12-01T05:09:01.054Z,61.63
2022-12-01T05:11:32.183Z,61.99
2022-12-01T05:14:02.263Z,61.96
2022-12-01T05:16:33.524Z,62.04
2022-12-01T05:19:24.298Z,61.97
2022-12-01T05:21:54.446Z,61.97
2022-12-01T05:24:24.558Z,62.04
2022-12-01T05:26:54.654Z,61.72
2022-12-01T05:29:24.790Z,62.11
2022-12-01T05:31:55.018Z,61.71
2022-12-01T05:34:25.167Z,62.03
2022-12-01T05:36:55.217Z,61.77
2022-12-01T05:39:25.372Z,61.76
2022-12-01T05:41:55.463Z,62.05
2022-12-01T05:44:25.527Z,61.75
2022-12-01T05:46:55.640Z,61.82
2022-12-01T05:49:25.736Z,61.57
2022-12-01T05:51:55.905Z,61.90
2022-12-01T05:54:25.972Z,61.71
2022-12-01T05:56:56.108Z,62.17
2022-12-01T05:59:26.734Z,61.72
2022-12-01T06:01:56.996Z,62.11
2022-12-01T06:04:27.174Z,61.72
2022-12-01T06:06:57.301Z,62.01
2022-12-01T06:09:27.456Z,62.00
2022-12-01T06:11:57.538Z,61.92
2022-12-01T06:14:27.677Z,62.22
2022-12-01T06:16:57.937Z,62.24
2022-12-01T06:19:28.147Z,61.83
2022-12-01T06:21:58.734Z,62.22
2022-12-01T06:24:28.919Z,62.33
2022-12-01T06:26:59.307Z,62.32
2022-12-01T06:29:29.371Z,62.66
2022-12-01T06:31:59.567Z,62.50
2022-12-01T06:34:29.604Z,62.93
2022-12-01T06:36:59.755Z,62.85
2022-12-01T06:39:29.954Z,62.91
2022-12-01T06:42:00.002Z,62.92
2022-12-01T06:44:30.181Z,63.13
2022-12-01T06:47:00.534Z,63.18
2022-12-01T06:49:30.970Z,63.57
2022-12-01T06:52:01.283Z,63.43
2022-12-01T06:54:31.557Z,63.46
2022-12-01T06:57:01.657Z,63.34
2022-12-01T06:59:32.238Z,63.54
2022-12-01T07:02:03.289Z,63.63
2022-12-01T07:04:33.749Z,63.40
2022-12-01T07:07:05.830Z,63.47
2022-12-01T07:09:35.980Z,63.73
2022-12-01T07:12:06.581Z,63.60
2022-12-01T07:14:36.915Z,63.71
2022-12-01T07:17:07.029Z,63.48
2022-12-01T07:19:37.248Z,64.08
2022-12-01T07:22:07.363Z,63.93
2022-12-01T07:24:37.795Z,64.07
2022-12-01T07:27:07.943Z,64.16
2022-12-01T07:29:38.012Z,64.13
2022-12-01T07:32:08.222Z,63.83
2022-12-01T07:34:38.656Z,63.95
2022-12-01T07:37:08.891Z,63.57
2022-12-01T07:39:39.125Z,64.19
2022-12-01T07:42:09.279Z,63.68
2022-12-01T07:44:39.587Z,63.76
2022-12-01T07:47:09.695Z,63.76
2022-12-01T07:49:39.848Z,63.83
2022-12-01T07:52:09.975Z,64.19
2022-12-01T07:54:40.059Z,63.97
2022-12-01T07:57:10.331Z,64.30
2022-12-01T07:59:40.695Z,64.13
2022-12-01T08:02:11.628Z,63.97
2022-12-01T08:04:43.040Z,64.07
2022-12-01T08:07:13.108Z,64.07
2022-12-01T08:09:45.081Z,64.02
2022-12-01T08:12:15.207Z,64.21
2022-12-01T08:14:45.372Z,63.91
2022-12-01T08:17:15.479Z,64.07
2022-12-01T08:19:45.528Z,64.10
2022-12-01T08:22:15.666Z,64.18
2022-12-01T08:24:45.812Z,64.21
2022-12-01T08:27:15.899Z,64.24
2022-12-01T08:29:46.107Z,64.17
2022-12-01T08:32:17.570Z,64.12
2022-12-01T08:34:53.158Z,64.09
2022-12-01T08:37:23.757Z,64.28
2022-12-01T08:39:53.905Z,63.84
2022-12-01T08:42:24.059Z,64.36
2022-12-01T08:44:54.258Z,64.26
2022-12-01T08:47:24.404Z,63.92
2022-12-01T08:49:54.984Z,64.09
2022-12-01T08:52:25.088Z,64.11
2022-12-01T08:54:55.182Z,64.23
2022-12-01T08:57:25.382Z,64.23
2022-12-01T08:59:55.553Z,64.14
2022-12-01T09:02:26.024Z,63.79
2022-12-01T09:04:56.228Z,64.23
2022-12-01T09:07:26.968Z,64.09
2022-12-01T09:09:57.411Z,63.97
2022-12-01T09:12:29.229Z,64.08
2022-12-01T09:14:59.648Z,63.95
2022-12-01T09:17:29.748Z,63.86
2022-12-01T09:23:40.931Z,63.36
2022-12-01T09:26:13.841Z,63.83
2022-12-01T09:28:45.208Z,63.65
2022-12-01T09:31:16.772Z,63.39
2022-12-01T09:33:47.532Z,63.92
2022-12-01T09:36:17.678Z,63.56
2022-12-01T09:38:47.759Z,63.90
2022-12-01T09:41:43.062Z,63.08
2022-12-01T09:44:51.500Z,62.53
2022-12-01T09:47:26.310Z,62.86
2022-12-01T09:50:01.576Z,62.81
2022-12-01T09:52:42.690Z,62.89
2022-12-01T09:55:15.605Z,63.16
2022-12-01T09:57:50.845Z,63.17
2022-12-01T10:00:27.413Z,63.25
2022-12-01T10:03:01.220Z,63.08
2022-12-01T10:06:02.921Z,63.07
2022-12-01T10:08:38.189Z,62.98
2022-12-01T10:11:44.749Z,62.25
2022-12-01T10:14:19.963Z,62.59
2022-12-01T10:17:12.390Z,62.63
2022-12-01T10:20:04.316Z,62.56
2022-12-01T10:23:14.634Z,61.95
2022-12-01T10:25:58.167Z,62.26
2022-12-01T10:29:03.784Z,61.70
2022-12-01T10:32:02.567Z,61.95
2022-12-01T10:34:37.781Z,62.25
2022-12-01T10:37:20.308Z,61.51
2022-12-01T10:39:53.301Z,62.05
2022-12-01T10:42:56.149Z,60.56
2022-12-01T10:45:28.941Z,61.84
2022-12-01T10:48:11.216Z,61.45
2022-12-01T10:50:53.575Z,61.55
2022-12-01T10:53:23.863Z,61.85
2022-12-01T10:56:21.335Z,60.82
2022-12-01T10:58:59.721Z,61.83
2022-12-01T11:01:36.040Z,61.84
2022-12-01T11:04:20.871Z,61.70
2022-12-01T11:06:51.710Z,61.88
2022-12-01T11:09:26.893Z,62.01
2022-12-01T11:12:01.810Z,61.83
2022-12-01T11:14:53.432Z,60.83
2022-12-01T11:17:32.205Z,61.30
2022-12-01T11:20:38.739Z,60.44
2022-12-01T11:23:30.036Z,61.33
2022-12-01T11:26:12.609Z,61.22
2022-12-01T11:28:54.479Z,60.11
2022-12-01T11:31:47.561Z,60.49
2022-12-01T11:34:20.127Z,60.86
2022-12-01T11:36:59.108Z,60.46
2022-12-01T11:39:41.809Z,59.30
2022-12-01T11:42:14.809Z,59.95
2022-12-01T11:44:55.753Z,59.11
2022-12-01T11:47:28.031Z,60.28
2022-12-01T11:50:03.369Z,60.13
2022-12-01T11:52:36.892Z,59.85
2022-12-01T11:55:20.793Z,59.55
2022-12-01T11:57:54.366Z,60.08
2022-12-01T12:00:27.562Z,59.60
2022-12-01T12:03:33.685Z,58.10
2022-12-01T12:06:39.513Z,59.65
2022-12-01T12:09:40.129Z,59.24
2022-12-01T12:12:43.917Z,59.33
2022-12-01T12:15:19.309Z,60.25
2022-12-01T12:18:16.874Z,59.86
2022-12-01T12:21:17.450Z,60.19
2022-12-01T12:24:17.259Z,60.40
2022-12-01T12:27:17.012Z,60.49
2022-12-01T12:30:26.336Z,60.63
2022-12-01T12:33:26.668Z,60.90
2022-12-01T12:36:13.857Z,61.14
2022-12-01T12:39:00.925Z,61.70
2022-12-01T12:41:43.351Z,61.66
2022-12-01T12:44:36.586Z,61.39
2022-12-01T12:47:28.572Z,61.45
2022-12-01T12:50:12.200Z,61.42
2022-12-01T12:52:47.785Z,61.78
2022-12-01T12:55:30.472Z,61.73
2022-12-01T12:58:24.301Z,60.96
2022-12-01T13:01:21.373Z,60.95
2022-12-01T13:04:07.686Z,61.01
2022-12-01T13:06:50.160Z,60.93
2022-12-01T13:09:45.695Z,61.26
2022-12-01T13:12:24.221Z,61.45
2022-12-01T13:15:09.410Z,61.49
2022-12-01T13:17:44.009Z,61.39
2022-12-01T13:20:19.046Z,61.74
2022-12-01T13:22:51.157Z,61.89
2022-12-01T13:25:34.548Z,61.85
2022-12-01T13:28:14.295Z,62.26
2022-12-01T13:30:58.462Z,62.31
2022-12-01T13:33:29.497Z,62.77
2022-12-01T13:36:38.262Z,62.43
2022-12-01T13:38:56.686Z,62.51
2022-12-01T13:41:32.372Z,62.72
2022-12-01T13:44:21.008Z,62.61
2022-12-01T13:46:57.104Z,62.74
2022-12-01T13:49:40.925Z,63.23
2022-12-01T13:52:23.328Z,62.98
2022-12-01T13:55:08.520Z,62.86
2022-12-01T13:57:56.447Z,62.48
2022-12-01T14:00:32.763Z,62.66
2022-12-01T14:03:19.574Z,62.81
2022-12-01T14:05:53.388Z,62.60
2022-12-01T14:08:32.955Z,62.96
2022-12-01T14:11:08.145Z,62.90
2022-12-01T14:14:04.299Z,63.15
2022-12-01T14:17:03.014Z,63.23
2022-12-01T14:19:39.072Z,62.95
2022-12-01T14:22:39.833Z,63.15
2022-12-01T14:25:21.935Z,63.33
2022-12-01T14:27:55.076Z,63.42
2022-12-01T14:30:45.215Z,63.56
2022-12-01T14:33:40.168Z,63.83
2022-12-01T14:36:22.825Z,63.26
2022-12-01T14:39:00.744Z,63.20
2022-12-01T14:41:40.485Z,63.62
2022-12-01T14:44:36.331Z,63.61
2022-12-01T14:47:18.521Z,63.30
2022-12-01T14:50:14.681Z,63.17
2022-12-01T14:52:49.603Z,63.37
2022-12-01T14:55:28.874Z,63.38
2022-12-01T14:58:06.345Z,63.62
2022-12-01T15:00:38.994Z,63.42
2022-12-01T15:03:14.382Z,63.65
2022-12-01T15:05:44.714Z,63.42
2022-12-01T15:08:43.434Z,63.71
2022-12-01T15:11:25.700Z,63.68
2022-12-01T15:13:57.240Z,63.58
2022-12-01T15:16:32.523Z,63.75
2022-12-01T15:19:02.744Z,63.96
2022-12-01T15:21:33.007Z,63.73
2022-12-01T15:24:21.322Z,63.77
2022-12-01T15:26:57.832Z,63.59
2022-12-01T15:29:33.699Z,63.71
2022-12-01T15:32:11.711Z,63.52
2022-12-01T15:34:44.723Z,63.74
2022-12-01T15:37:21.138Z,64.01
2022-12-01T15:43:03.898Z,63.60
2022-12-01T15:45:51.380Z,64.01
2022-12-01T15:48:34.626Z,63.95
2022-12-01T15:51:10.949Z,63.60
2022-12-01T15:53:48.160Z,63.61
2022-12-01T15:56:32.316Z,63.77
2022-12-01T15:59:14.677Z,63.63
2022-12-01T16:01:45.785Z,63.85
2022-12-01T16:04:25.475Z,64.15
2022-12-01T16:07:09.414Z,64.05
2022-12-01T16:09:40.792Z,63.97
2022-12-01T16:12:17.025Z,64.25
2022-12-01T16:14:56.452Z,64.32
2022-12-01T16:17:45.143Z,63.94
2022-12-01T16:20:27.304Z,64.18
2022-12-01T16:23:01.227Z,64.37
2022-12-01T16:25:37.781Z,64.01
2022-12-01T16:28:21.594Z,64.51
2022-12-01T16:30:53.151Z,64.11
2022-12-01T16:33:26.758Z,64.37
2022-12-01T16:35:59.772Z,64.12
2022-12-01T16:38:30.769Z,64.33
2022-12-01T16:41:02.524Z,64.12
2022-12-01T16:43:32.715Z,64.34
2022-12-01T16:46:06.388Z,64.30
2022-12-01T16:48:37.883Z,64.01
2022-12-01T16:51:08.299Z,64.62
2022-12-01T16:53:38.494Z,64.02
2022-12-01T16:56:13.066Z,64.62
2022-12-01T16:58:44.978Z,64.45
2022-12-01T17:01:15.309Z,64.22
2022-12-01T17:03:45.609Z,64.50
2022-12-01T17:06:18.590Z,64.59
2022-12-01T17:08:49.131Z,64.13
2022-12-01T17:11:19.256Z,64.40
2022-12-01T17:13:49.443Z,64.42
2022-12-01T17:16:19.677Z,64.83
2022-12-01T17:18:49.937Z,64.85
2022-12-01T17:21:20.179Z,65.01
2022-12-01T17:23:50.388Z,64.72
2022-12-01T17:26:23.090Z,64.38
2022-12-01T17:28:56.266Z,64.23
2022-12-01T17:31:26.879Z,64.62
2022-12-01T17:33:57.396Z,64.24
2022-12-01T17:36:27.556Z,64.31
2022-12-01T17:38:58.889Z,64.12
2022-12-01T17:41:32.682Z,63.97
2022-12-01T17:44:04.488Z,64.43
2022-12-01T17:46:34.693Z,64.06
2022-12-01T17:49:10.026Z,64.29
2022-12-01T17:51:41.137Z,64.42
2022-12-01T17:54:11.200Z,64.24
2022-12-01T17:56:41.425Z,64.28
2022-12-01T17:59:11.897Z,64.31
2022-12-01T18:01:43.610Z,64.37
2022-12-01T18:04:14.095Z,63.93
2022-12-01T18:06:46.021Z,63.71
2022-12-01T18:09:19.559Z,63.72
2022-12-01T18:11:49.792Z,63.86
2022-12-01T18:14:20.011Z,63.64
2022-12-01T18:16:50.247Z,64.02
2022-12-01T18:19:20.787Z,63.97
2022-12-01T18:21:51.049Z,63.68
2022-12-01T18:24:21.246Z,64.12
2022-12-01T18:26:51.441Z,63.49
2022-12-01T18:29:26.310Z,63.34
2022-12-01T18:31:57.994Z,63.49
2022-12-01T18:34:31.618Z,63.44
2022-12-01T18:37:03.058Z,63.88
2022-12-01T18:39:33.714Z,63.55
2022-12-01T18:42:04.428Z,63.19
2022-12-01T18:44:34.605Z,63.30
2022-12-01T18:47:06.605Z,63.23
2022-12-01T18:49:36.868Z,63.54
2022-12-01T18:52:07.167Z,63.24
2022-12-01T18:54:37.383Z,63.31
2022-12-01T18:57:07.730Z,63.37
2022-12-01T18:59:38.556Z,63.38
2022-12-01T19:02:10.053Z,63.43
2022-12-01T19:04:40.310Z,63.36
2022-12-01T19:07:10.531Z,63.67
2022-12-01T19:09:40.817Z,63.52
2022-12-01T19:12:10.915Z,63.17
2022-12-01T19:14:41.072Z,63.32
2022-12-01T19:17:11.501Z,63.06
2022-12-01T19:19:41.652Z,63.58
2022-12-01T19:22:11.804Z,63.33
2022-12-01T19:24:44.824Z,63.04
2022-12-01T19:27:19.397Z,63.23
2022-12-01T19:29:50.238Z,63.23
2022-12-01T19:32:20.721Z,63.60
2022-12-01T19:34:50.900Z,62.99
2022-12-01T19:37:21.341Z,63.49
2022-12-01T19:39:51.542Z,63.35
2022-12-01T19:42:21.671Z,63.23
2022-12-01T19:44:52.168Z,63.54
2022-12-01T19:47:22.697Z,63.25
2022-12-01T19:49:52.816Z,63.76
2022-12-01T19:52:23.061Z,63.69
2022-12-01T19:54:53.290Z,63.15
2022-12-01T19:57:23.626Z,63.21
2022-12-01T19:59:53.794Z,63.68
2022-12-01T20:02:28.887Z,63.35
2022-12-01T20:04:59.585Z,63.39
2022-12-01T20:07:30.754Z,63.29
2022-12-01T20:10:00.904Z,63.04
2022-12-01T20:12:31.046Z,63.52
2022-12-01T20:15:01.578Z,63.07
2022-12-01T20:17:35.870Z,62.97
2022-12-01T20:20:06.718Z,63.44
2022-12-01T20:22:37.277Z,63.19
2022-12-01T20:25:09.357Z,62.80
2022-12-01T20:27:39.843Z,62.92
2022-12-01T20:30:10.811Z,63.41
2022-12-01T20:32:41.057Z,63.34
2022-12-01T20:35:11.501Z,63.02
2022-12-01T20:37:41.868Z,63.38
2022-12-01T20:40:12.301Z,63.09
2022-12-01T20:42:42.371Z,62.84
2022-12-01T20:45:12.565Z,63.51
2022-12-01T20:47:42.696Z,63.12
2022-12-01T20:50:12.877Z,63.15
2022-12-01T20:52:42.957Z,62.97
2022-12-01T20:55:13.145Z,62.67
2022-12-01T20:57:43.416Z,62.85
2022-12-01T21:00:14.229Z,63.02
2022-12-01T21:02:44.965Z,62.88
2022-12-01T21:05:15.476Z,62.80
2022-12-01T21:07:46.001Z,62.90
2022-12-01T21:10:19.929Z,62.65
2022-12-01T21:13:14.516Z,62.79
2022-12-01T21:16:01.972Z,62.40
2022-12-01T21:19:06.615Z,62.59
2022-12-01T21:21:40.186Z,62.75
2022-12-01T21:24:16.870Z,62.91
2022-12-01T21:26:49.915Z,62.86
2022-12-01T21:29:23.085Z,63.03
2022-12-01T21:31:58.817Z,62.75
2022-12-01T21:34:29.538Z,62.73
2022-12-01T21:37:02.799Z,62.75
2022-12-01T21:39:34.914Z,62.68
2022-12-01T21:42:19.331Z,62.35
2022-12-01T21:44:49.987Z,62.44
2022-12-01T21:47:21.841Z,62.86
2022-12-01T21:49:54.309Z,62.45
2022-12-01T21:52:40.045Z,62.60
2022-12-01T21:55:16.349Z,62.73
2022-12-01T21:57:49.040Z,62.26
2022-12-01T22:00:32.779Z,62.87
2022-12-01T22:03:08.631Z,62.72
2022-12-01T22:05:42.894Z,62.63
2022-12-01T22:08:25.618Z,62.38
2022-12-01T22:11:11.013Z,62.72
2022-12-01T22:14:03.996Z,62.32
2022-12-01T22:16:36.167Z,62.46
2022-12-01T22:19:15.356Z,62.30
2022-12-01T22:21:50.218Z,62.61
2022-12-01T22:24:52.940Z,62.68
2022-12-01T22:27:26.309Z,62.53
2022-12-01T22:30:01.404Z,63.02
2022-12-01T22:32:54.775Z,62.84
2022-12-01T22:35:45.006Z,62.34
2022-12-01T22:38:21.244Z,62.61
2022-12-01T22:40:51.610Z,62.67
2022-12-01T22:43:24.713Z,62.79
2022-12-01T22:46:01.884Z,62.88
2022-12-01T22:48:42.480Z,62.45
2022-12-01T22:51:30.642Z,62.45
2022-12-01T22:54:12.201Z,62.79
2022-12-01T22:56:45.783Z,62.36
2022-12-01T22:59:29.566Z,62.14
2022-12-01T23:02:02.005Z,62.58
2022-12-01T23:04:41.262Z,62.44
2022-12-01T23:07:28.867Z,62.17
2022-12-01T23:10:16.794Z,61.92
2022-12-01T23:12:49.336Z,62.09
2022-12-01T23:15:25.864Z,61.96
2022-12-01T23:17:57.020Z,62.52
2022-12-01T23:20:33.662Z,62.07
2022-12-01T23:23:07.278Z,62.30
2022-12-01T23:25:37.467Z,62.12
2022-12-01T23:28:09.144Z,62.26
2022-12-01T23:30:41.965Z,62.10
2022-12-01T23:33:32.594Z,61.92
2022-12-01T23:36:14.603Z,61.64
2022-12-01T23:38:51.501Z,62.01
2022-12-01T23:41:37.545Z,61.61
2022-12-01T23:44:19.376Z,61.89
2022-12-01T23:46:53.349Z,62.24
2022-12-01T23:49:27.763Z,62.14
2022-12-01T23:52:01.835Z,62.36
2022-12-01T23:54:34.601Z,62.07
2022-12-01T23:57:15.939Z,62.06
2022-12-01T23:59:46.290Z,62.32
